sensor_id;sensor_type;location;lat;lon;timestamp;temperature;humidity
11736;DHT22;5924;51.398;7.088;2022-07-01T00:02:02;13.60;99.90
11736;DHT22;5924;51.398;7.088;2022-07-01T00:04:28;13.60;99.90
11736;DHT22;5924;51.398;7.088;2022-07-01T00:06:54;13.60;99.90
11736;DHT22;5924;51.398;7.088;2022-07-01T00:09:21;13.60;99.90
11736;DHT22;5924;51.398;7.088;2022-07-01T00:11:47;13.60;99.90
11736;DHT22;5924;51.398;7.088;2022-07-01T00:14:12;14.60;99.90
11736;DHT22;5924;51.398;7.088;2022-07-01T00:16:38;13.50;99.90
11736;DHT22;5924;51.398;7.088;2022-07-01T00:19:04;13.50;99.90
11736;DHT22;5924;51.398;7.088;2022-07-01T00:21:30;13.40;99.90
11736;DHT22;5924;51.398;7.088;2022-07-01T00:23:56;13.40;99.90
11736;DHT22;5924;51.398;7.088;2022-07-01T00:26:21;13.40;99.90
11736;DHT22;5924;51.398;7.088;2022-07-01T00:28:47;13.40;99.90
11736;DHT22;5924;51.398;7.088;2022-07-01T00:31:13;13.50;99.90
11736;DHT22;5924;51.398;7.088;2022-07-01T00:33:38;13.50;99.90
11736;DHT22;5924;51.398;7.088;2022-07-01T00:36:04;13.50;99.90
11736;DHT22;5924;51.398;7.088;2022-07-01T00:38:30;13.50;99.90
11736;DHT22;5924;51.398;7.088;2022-07-01T00:40:56;13.50;99.90
11736;DHT22;5924;51.398;7.088;2022-07-01T00:43:23;13.50;99.90
11736;DHT22;5924;51.398;7.088;2022-07-01T00:45:50;13.40;99.90
11736;DHT22;5924;51.398;7.088;2022-07-01T00:48:16;13.50;99.90
11736;DHT22;5924;51.398;7.088;2022-07-01T00:50:43;13.50;99.90
11736;DHT22;5924;51.398;7.088;2022-07-01T00:53:09;13.50;99.90
11736;DHT22;5924;51.398;7.088;2022-07-01T00:55:35;13.60;99.90
11736;DHT22;5924;51.398;7.088;2022-07-01T00:58:00;13.50;99.90
11736;DHT22;5924;51.398;7.088;2022-07-01T01:00:26;13.50;99.90
11736;DHT22;5924;51.398;7.088;2022-07-01T01:02:52;13.50;99.90
11736;DHT22;5924;51.398;7.088;2022-07-01T01:05:18;13.50;99.90
11736;DHT22;5924;51.398;7.088;2022-07-01T01:07:47;13.50;99.90
11736;DHT22;5924;51.398;7.088;2022-07-01T01:10:14;13.50;99.90
11736;DHT22;5924;51.398;7.088;2022-07-01T01:12:40;13.60;99.90
11736;DHT22;5924;51.398;7.088;2022-07-01T01:15:06;13.60;99.90
11736;DHT22;5924;51.398;7.088;2022-07-01T01:17:32;13.60;99.90
11736;DHT22;5924;51.398;7.088;2022-07-01T01:19:58;13.50;99.90
11736;DHT22;5924;51.398;7.088;2022-07-01T01:22:24;13.60;99.90
11736;DHT22;5924;51.398;7.088;2022-07-01T01:24:49;13.60;99.90
11736;DHT22;5924;51.398;7.088;2022-07-01T01:27:15;13.60;99.90
11736;DHT22;5924;51.398;7.088;2022-07-01T01:29:42;13.60;99.90
11736;DHT22;5924;51.398;7.088;2022-07-01T01:32:08;13.50;99.90
11736;DHT22;5924;51.398;7.088;2022-07-01T01:34:34;13.60;99.90
11736;DHT22;5924;51.398;7.088;2022-07-01T01:37:02;13.60;99.90
11736;DHT22;5924;51.398;7.088;2022-07-01T01:39:28;13.50;99.90
11736;DHT22;5924;51.398;7.088;2022-07-01T01:41:54;13.50;99.90
11736;DHT22;5924;51.398;7.088;2022-07-01T01:44:20;13.40;99.90
11736;DHT22;5924;51.398;7.088;2022-07-01T01:46:46;13.40;99.90
11736;DHT22;5924;51.398;7.088;2022-07-01T01:49:12;13.50;99.90
11736;DHT22;5924;51.398;7.088;2022-07-01T01:51:37;13.50;99.90
11736;DHT22;5924;51.398;7.088;2022-07-01T01:54:04;13.50;99.90
11736;DHT22;5924;51.398;7.088;2022-07-01T01:56:30;15.30;99.90
11736;DHT22;5924;51.398;7.088;2022-07-01T01:58:56;16.10;99.90
11736;DHT22;5924;51.398;7.088;2022-07-01T02:01:22;13.30;99.90
11736;DHT22;5924;51.398;7.088;2022-07-01T02:03:50;13.40;99.90
11736;DHT22;5924;51.398;7.088;2022-07-01T02:06:17;13.40;99.90
11736;DHT22;5924;51.398;7.088;2022-07-01T02:08:43;13.30;99.90
11736;DHT22;5924;51.398;7.088;2022-07-01T02:11:09;13.30;99.90
11736;DHT22;5924;51.398;7.088;2022-07-01T02:13:35;13.40;99.90
11736;DHT22;5924;51.398;7.088;2022-07-01T02:16:02;13.40;99.90
11736;DHT22;5924;51.398;7.088;2022-07-01T02:18:27;13.40;99.90
11736;DHT22;5924;51.398;7.088;2022-07-01T02:20:53;13.40;99.90
11736;DHT22;5924;51.398;7.088;2022-07-01T02:23:19;13.40;99.90
11736;DHT22;5924;51.398;7.088;2022-07-01T02:25:45;13.40;99.90
11736;DHT22;5924;51.398;7.088;2022-07-01T02:28:12;13.40;99.90
11736;DHT22;5924;51.398;7.088;2022-07-01T02:30:38;13.40;99.90
11736;DHT22;5924;51.398;7.088;2022-07-01T02:33:07;13.40;99.90
11736;DHT22;5924;51.398;7.088;2022-07-01T02:35:34;15.60;99.90
11736;DHT22;5924;51.398;7.088;2022-07-01T02:38:00;13.40;99.90
11736;DHT22;5924;51.398;7.088;2022-07-01T02:40:26;13.30;99.90
11736;DHT22;5924;51.398;7.088;2022-07-01T02:42:52;13.30;99.90
11736;DHT22;5924;51.398;7.088;2022-07-01T02:45:18;13.20;99.90
11736;DHT22;5924;51.398;7.088;2022-07-01T02:47:43;13.20;99.90
11736;DHT22;5924;51.398;7.088;2022-07-01T02:50:11;13.20;99.90
11736;DHT22;5924;51.398;7.088;2022-07-01T02:52:38;13.20;99.90
11736;DHT22;5924;51.398;7.088;2022-07-01T02:55:06;13.20;99.90
11736;DHT22;5924;51.398;7.088;2022-07-01T02:57:32;13.20;99.90
11736;DHT22;5924;51.398;7.088;2022-07-01T02:59:58;13.20;99.90
11736;DHT22;5924;51.398;7.088;2022-07-01T03:02:24;13.20;99.90
11736;DHT22;5924;51.398;7.088;2022-07-01T03:04:51;13.20;99.90
11736;DHT22;5924;51.398;7.088;2022-07-01T03:07:18;13.20;99.90
11736;DHT22;5924;51.398;7.088;2022-07-01T03:09:44;13.20;99.90
11736;DHT22;5924;51.398;7.088;2022-07-01T03:12:10;13.20;99.90
11736;DHT22;5924;51.398;7.088;2022-07-01T03:14:58;13.30;99.90
11736;DHT22;5924;51.398;7.088;2022-07-01T03:17:24;13.30;99.90
11736;DHT22;5924;51.398;7.088;2022-07-01T03:19:51;13.30;99.90
11736;DHT22;5924;51.398;7.088;2022-07-01T03:22:17;13.40;99.90
11736;DHT22;5924;51.398;7.088;2022-07-01T03:24:43;13.30;99.90
11736;DHT22;5924;51.398;7.088;2022-07-01T03:27:09;13.40;99.90
11736;DHT22;5924;51.398;7.088;2022-07-01T03:29:35;13.40;99.90
11736;DHT22;5924;51.398;7.088;2022-07-01T03:32:01;13.40;99.90
11736;DHT22;5924;51.398;7.088;2022-07-01T03:34:27;13.40;99.90
11736;DHT22;5924;51.398;7.088;2022-07-01T03:36:52;13.30;99.90
11736;DHT22;5924;51.398;7.088;2022-07-01T03:39:18;13.40;99.90
11736;DHT22;5924;51.398;7.088;2022-07-01T03:41:44;13.30;99.90
11736;DHT22;5924;51.398;7.088;2022-07-01T03:44:10;13.30;99.90
11736;DHT22;5924;51.398;7.088;2022-07-01T03:46:35;13.30;99.90
11736;DHT22;5924;51.398;7.088;2022-07-01T03:49:01;13.30;99.90
11736;DHT22;5924;51.398;7.088;2022-07-01T03:51:27;13.30;99.90
11736;DHT22;5924;51.398;7.088;2022-07-01T03:53:53;13.30;99.90
11736;DHT22;5924;51.398;7.088;2022-07-01T03:56:39;13.30;99.90
11736;DHT22;5924;51.398;7.088;2022-07-01T03:59:04;13.30;99.90
11736;DHT22;5924;51.398;7.088;2022-07-01T04:01:30;13.00;99.90
11736;DHT22;5924;51.398;7.088;2022-07-01T04:03:56;13.30;99.90
11736;DHT22;5924;51.398;7.088;2022-07-01T04:06:22;13.30;99.90
11736;DHT22;5924;51.398;7.088;2022-07-01T04:08:48;13.00;99.90
11736;DHT22;5924;51.398;7.088;2022-07-01T04:11:15;13.40;99.90
11736;DHT22;5924;51.398;7.088;2022-07-01T04:13:41;13.40;99.90
11736;DHT22;5924;51.398;7.088;2022-07-01T04:16:09;13.50;99.90
11736;DHT22;5924;51.398;7.088;2022-07-01T04:18:35;13.50;99.90
11736;DHT22;5924;51.398;7.088;2022-07-01T04:21:01;13.50;99.90
11736;DHT22;5924;51.398;7.088;2022-07-01T04:23:45;13.60;99.90
11736;DHT22;5924;51.398;7.088;2022-07-01T04:26:11;13.60;99.90
11736;DHT22;5924;51.398;7.088;2022-07-01T04:28:36;13.60;99.90
11736;DHT22;5924;51.398;7.088;2022-07-01T04:31:02;13.50;99.90
11736;DHT22;5924;51.398;7.088;2022-07-01T04:33:28;13.70;99.90
11736;DHT22;5924;51.398;7.088;2022-07-01T04:35:53;13.70;99.90
11736;DHT22;5924;51.398;7.088;2022-07-01T04:38:19;13.80;99.90
11736;DHT22;5924;51.398;7.088;2022-07-01T04:40:44;13.80;99.90
11736;DHT22;5924;51.398;7.088;2022-07-01T04:43:30;13.80;99.90
11736;DHT22;5924;51.398;7.088;2022-07-01T04:45:55;13.80;99.90
11736;DHT22;5924;51.398;7.088;2022-07-01T04:48:21;13.80;99.90
11736;DHT22;5924;51.398;7.088;2022-07-01T04:50:47;13.80;99.90
11736;DHT22;5924;51.398;7.088;2022-07-01T04:53:14;13.80;99.90
11736;DHT22;5924;51.398;7.088;2022-07-01T04:55:40;13.80;99.90
11736;DHT22;5924;51.398;7.088;2022-07-01T04:58:05;13.80;99.90
11736;DHT22;5924;51.398;7.088;2022-07-01T05:00:31;13.80;99.90
11736;DHT22;5924;51.398;7.088;2022-07-01T05:02:57;13.80;99.90
11736;DHT22;5924;51.398;7.088;2022-07-01T05:05:22;13.90;99.90
11736;DHT22;5924;51.398;7.088;2022-07-01T05:07:48;13.90;99.90
11736;DHT22;5924;51.398;7.088;2022-07-01T05:10:14;13.90;99.90
11736;DHT22;5924;51.398;7.088;2022-07-01T05:12:39;13.90;99.90
11736;DHT22;5924;51.398;7.088;2022-07-01T05:15:05;13.90;99.90
11736;DHT22;5924;51.398;7.088;2022-07-01T05:17:33;13.90;99.90
11736;DHT22;5924;51.398;7.088;2022-07-01T05:20:17;13.90;99.90
11736;DHT22;5924;51.398;7.088;2022-07-01T05:23:01;14.00;99.90
11736;DHT22;5924;51.398;7.088;2022-07-01T05:25:27;14.00;99.90
11736;DHT22;5924;51.398;7.088;2022-07-01T05:27:53;14.00;99.90
11736;DHT22;5924;51.398;7.088;2022-07-01T05:30:23;14.10;99.90
11736;DHT22;5924;51.398;7.088;2022-07-01T05:32:48;14.10;99.90
11736;DHT22;5924;51.398;7.088;2022-07-01T05:35:14;14.10;99.90
11736;DHT22;5924;51.398;7.088;2022-07-01T05:37:40;14.10;99.90
11736;DHT22;5924;51.398;7.088;2022-07-01T05:40:07;14.10;99.90
11736;DHT22;5924;51.398;7.088;2022-07-01T05:42:33;14.10;99.90
11736;DHT22;5924;51.398;7.088;2022-07-01T05:44:58;14.10;99.90
11736;DHT22;5924;51.398;7.088;2022-07-01T05:47:24;14.10;99.90
11736;DHT22;5924;51.398;7.088;2022-07-01T05:49:50;14.00;99.90
11736;DHT22;5924;51.398;7.088;2022-07-01T05:52:16;14.00;99.90
11736;DHT22;5924;51.398;7.088;2022-07-01T05:54:41;16.60;99.90
11736;DHT22;5924;51.398;7.088;2022-07-01T05:57:07;14.00;99.90
11736;DHT22;5924;51.398;7.088;2022-07-01T05:59:33;14.00;99.90
11736;DHT22;5924;51.398;7.088;2022-07-01T06:01:58;14.00;99.90
11736;DHT22;5924;51.398;7.088;2022-07-01T06:04:24;14.00;99.90
11736;DHT22;5924;51.398;7.088;2022-07-01T06:06:49;14.00;99.90
11736;DHT22;5924;51.398;7.088;2022-07-01T06:09:15;16.40;99.90
11736;DHT22;5924;51.398;7.088;2022-07-01T06:11:41;14.00;99.90
11736;DHT22;5924;51.398;7.088;2022-07-01T06:14:06;14.10;99.90
11736;DHT22;5924;51.398;7.088;2022-07-01T06:16:32;14.20;99.90
11736;DHT22;5924;51.398;7.088;2022-07-01T06:18:58;14.20;99.90
11736;DHT22;5924;51.398;7.088;2022-07-01T06:21:24;14.20;99.90
11736;DHT22;5924;51.398;7.088;2022-07-01T06:23:49;14.20;99.90
11736;DHT22;5924;51.398;7.088;2022-07-01T06:26:15;14.20;99.90
11736;DHT22;5924;51.398;7.088;2022-07-01T06:28:41;14.20;99.90
11736;DHT22;5924;51.398;7.088;2022-07-01T06:31:07;14.30;99.90
11736;DHT22;5924;51.398;7.088;2022-07-01T06:33:33;14.40;99.90
11736;DHT22;5924;51.398;7.088;2022-07-01T06:35:58;14.60;99.90
11736;DHT22;5924;51.398;7.088;2022-07-01T06:38:24;14.80;99.90
11736;DHT22;5924;51.398;7.088;2022-07-01T06:40:50;14.90;95.60
11736;DHT22;5924;51.398;7.088;2022-07-01T06:43:35;15.00;95.80
11736;DHT22;5924;51.398;7.088;2022-07-01T06:46:01;15.00;99.60
11736;DHT22;5924;51.398;7.088;2022-07-01T06:48:27;15.10;95.60
11736;DHT22;5924;51.398;7.088;2022-07-01T06:50:53;15.20;95.60
11736;DHT22;5924;51.398;7.088;2022-07-01T06:53:18;15.20;95.30
11736;DHT22;5924;51.398;7.088;2022-07-01T06:55:44;15.40;96.70
11736;DHT22;5924;51.398;7.088;2022-07-01T06:58:10;15.40;87.70
11736;DHT22;5924;51.398;7.088;2022-07-01T07:00:36;15.50;95.70
11736;DHT22;5924;51.398;7.088;2022-07-01T07:03:01;15.70;94.50
11736;DHT22;5924;51.398;7.088;2022-07-01T07:05:27;15.90;59.20
11736;DHT22;5924;51.398;7.088;2022-07-01T07:07:56;16.00;74.10
11736;DHT22;5924;51.398;7.088;2022-07-01T07:10:22;16.20;55.00
11736;DHT22;5924;51.398;7.088;2022-07-01T07:12:48;16.50;49.10
11736;DHT22;5924;51.398;7.088;2022-07-01T07:15:13;16.60;13.90
11736;DHT22;5924;51.398;7.088;2022-07-01T07:17:39;16.70;16.30
11736;DHT22;5924;51.398;7.088;2022-07-01T07:20:05;16.70;11.40
11736;DHT22;5924;51.398;7.088;2022-07-01T07:22:31;16.90;30.50
11736;DHT22;5924;51.398;7.088;2022-07-01T07:24:56;17.20;1.00
11736;DHT22;5924;51.398;7.088;2022-07-01T07:27:22;17.40;1.00
11736;DHT22;5924;51.398;7.088;2022-07-01T07:29:48;17.60;1.00
11736;DHT22;5924;51.398;7.088;2022-07-01T07:32:13;17.70;1.00
11736;DHT22;5924;51.398;7.088;2022-07-01T07:34:39;17.80;1.00
11736;DHT22;5924;51.398;7.088;2022-07-01T07:37:05;17.80;1.00
11736;DHT22;5924;51.398;7.088;2022-07-01T07:39:31;17.70;1.00
11736;DHT22;5924;51.398;7.088;2022-07-01T07:41:56;17.50;1.00
11736;DHT22;5924;51.398;7.088;2022-07-01T07:44:23;17.40;1.00
11736;DHT22;5924;51.398;7.088;2022-07-01T07:46:49;17.30;1.00
11736;DHT22;5924;51.398;7.088;2022-07-01T07:49:15;17.20;1.00
11736;DHT22;5924;51.398;7.088;2022-07-01T07:51:40;17.00;1.00
11736;DHT22;5924;51.398;7.088;2022-07-01T07:54:06;16.80;1.00
11736;DHT22;5924;51.398;7.088;2022-07-01T07:56:32;16.80;1.00
11736;DHT22;5924;51.398;7.088;2022-07-01T07:58:57;16.90;1.00
11736;DHT22;5924;51.398;7.088;2022-07-01T08:01:23;17.10;1.00
11736;DHT22;5924;51.398;7.088;2022-07-01T08:03:49;17.20;1.00
11736;DHT22;5924;51.398;7.088;2022-07-01T08:06:14;17.20;1.00
11736;DHT22;5924;51.398;7.088;2022-07-01T08:08:40;17.30;1.00
11736;DHT22;5924;51.398;7.088;2022-07-01T08:11:06;17.50;1.00
11736;DHT22;5924;51.398;7.088;2022-07-01T08:13:31;17.50;1.00
11736;DHT22;5924;51.398;7.088;2022-07-01T08:15:57;17.50;1.00
11736;DHT22;5924;51.398;7.088;2022-07-01T08:18:23;17.40;1.00
11736;DHT22;5924;51.398;7.088;2022-07-01T08:20:49;17.40;1.00
11736;DHT22;5924;51.398;7.088;2022-07-01T08:23:21;17.20;1.00
11736;DHT22;5924;51.398;7.088;2022-07-01T08:25:48;17.10;1.00
11736;DHT22;5924;51.398;7.088;2022-07-01T08:28:15;17.00;1.00
11736;DHT22;5924;51.398;7.088;2022-07-01T08:30:40;17.00;1.00
11736;DHT22;5924;51.398;7.088;2022-07-01T08:33:06;17.20;1.00
11736;DHT22;5924;51.398;7.088;2022-07-01T08:35:32;17.40;1.00
11736;DHT22;5924;51.398;7.088;2022-07-01T08:37:58;17.70;1.00
11736;DHT22;5924;51.398;7.088;2022-07-01T08:40:25;17.90;1.00
11736;DHT22;5924;51.398;7.088;2022-07-01T08:42:55;18.10;1.00
11736;DHT22;5924;51.398;7.088;2022-07-01T08:45:22;17.80;1.00
11736;DHT22;5924;51.398;7.088;2022-07-01T08:47:49;17.70;1.00
11736;DHT22;5924;51.398;7.088;2022-07-01T08:50:15;17.90;1.00
11736;DHT22;5924;51.398;7.088;2022-07-01T08:52:41;18.40;1.00
11736;DHT22;5924;51.398;7.088;2022-07-01T08:55:07;18.80;1.00
11736;DHT22;5924;51.398;7.088;2022-07-01T08:57:32;18.90;99.90
11736;DHT22;5924;51.398;7.088;2022-07-01T09:00:06;19.00;99.90
11736;DHT22;5924;51.398;7.088;2022-07-01T09:03:00;19.20;99.90
11736;DHT22;5924;51.398;7.088;2022-07-01T09:05:27;19.60;1.00
11736;DHT22;5924;51.398;7.088;2022-07-01T09:10:22;19.50;23.80
11736;DHT22;5924;51.398;7.088;2022-07-01T09:12:48;19.20;1.00
11736;DHT22;5924;51.398;7.088;2022-07-01T09:15:22;19.10;90.70
11736;DHT22;5924;51.398;7.088;2022-07-01T09:17:51;18.90;99.90
11736;DHT22;5924;51.398;7.088;2022-07-01T09:20:30;18.80;99.90
11736;DHT22;5924;51.398;7.088;2022-07-01T09:23:01;18.80;99.90
11736;DHT22;5924;51.398;7.088;2022-07-01T09:25:37;18.90;99.90
11736;DHT22;5924;51.398;7.088;2022-07-01T09:28:13;19.00;99.90
11736;DHT22;5924;51.398;7.088;2022-07-01T09:30:41;19.30;1.00
11736;DHT22;5924;51.398;7.088;2022-07-01T09:33:19;19.70;99.90
11736;DHT22;5924;51.398;7.088;2022-07-01T09:35:46;20.10;1.00
11736;DHT22;5924;51.398;7.088;2022-07-01T09:38:16;20.40;1.00
11736;DHT22;5924;51.398;7.088;2022-07-01T09:43:18;20.70;1.00
11736;DHT22;5924;51.398;7.088;2022-07-01T09:45:54;20.70;1.00
11736;DHT22;5924;51.398;7.088;2022-07-01T09:48:22;20.60;99.90
11736;DHT22;5924;51.398;7.088;2022-07-01T09:50:48;20.50;99.90
11736;DHT22;5924;51.398;7.088;2022-07-01T09:53:14;20.30;99.90
11736;DHT22;5924;51.398;7.088;2022-07-01T09:55:40;20.20;99.90
11736;DHT22;5924;51.398;7.088;2022-07-01T09:58:06;20.20;93.30
11736;DHT22;5924;51.398;7.088;2022-07-01T10:00:35;20.20;99.90
11736;DHT22;5924;51.398;7.088;2022-07-01T10:03:02;20.20;99.90
11736;DHT22;5924;51.398;7.088;2022-07-01T10:05:29;20.30;99.90
11736;DHT22;5924;51.398;7.088;2022-07-01T10:13:16;20.00;99.90
11736;DHT22;5924;51.398;7.088;2022-07-01T10:15:44;20.10;99.90
11736;DHT22;5924;51.398;7.088;2022-07-01T10:18:27;20.30;99.90
11736;DHT22;5924;51.398;7.088;2022-07-01T10:20:55;20.50;99.90
11736;DHT22;5924;51.398;7.088;2022-07-01T10:23:22;20.60;99.90
11736;DHT22;5924;51.398;7.088;2022-07-01T10:25:53;20.80;99.90
11736;DHT22;5924;51.398;7.088;2022-07-01T10:30:58;21.00;99.90
11736;DHT22;5924;51.398;7.088;2022-07-01T10:33:29;21.10;99.90
11736;DHT22;5924;51.398;7.088;2022-07-01T10:36:04;21.30;99.90
11736;DHT22;5924;51.398;7.088;2022-07-01T10:38:29;21.30;99.90
11736;DHT22;5924;51.398;7.088;2022-07-01T10:40:55;21.00;99.90
11736;DHT22;5924;51.398;7.088;2022-07-01T10:43:34;20.70;99.90
11736;DHT22;5924;51.398;7.088;2022-07-01T10:46:00;20.40;99.90
11736;DHT22;5924;51.398;7.088;2022-07-01T10:48:30;20.40;99.90
11736;DHT22;5924;51.398;7.088;2022-07-01T10:50:56;20.70;99.90
11736;DHT22;5924;51.398;7.088;2022-07-01T10:53:22;21.00;99.90
11736;DHT22;5924;51.398;7.088;2022-07-01T10:55:50;21.30;99.90
11736;DHT22;5924;51.398;7.088;2022-07-01T10:58:16;21.30;99.90
11736;DHT22;5924;51.398;7.088;2022-07-01T11:00:47;21.30;99.90
11736;DHT22;5924;51.398;7.088;2022-07-01T11:03:19;21.10;99.90
11736;DHT22;5924;51.398;7.088;2022-07-01T11:05:48;21.30;99.90
11736;DHT22;5924;51.398;7.088;2022-07-01T11:08:14;21.70;99.90
11736;DHT22;5924;51.398;7.088;2022-07-01T11:10:41;22.00;99.90
11736;DHT22;5924;51.398;7.088;2022-07-01T11:13:07;22.20;99.90
11736;DHT22;5924;51.398;7.088;2022-07-01T11:15:34;22.30;99.90
11736;DHT22;5924;51.398;7.088;2022-07-01T11:18:00;22.50;99.90
11736;DHT22;5924;51.398;7.088;2022-07-01T11:20:29;22.70;99.90
11736;DHT22;5924;51.398;7.088;2022-07-01T11:22:55;22.60;99.90
11736;DHT22;5924;51.398;7.088;2022-07-01T11:25:21;22.30;99.90
11736;DHT22;5924;51.398;7.088;2022-07-01T11:27:49;22.00;99.90
11736;DHT22;5924;51.398;7.088;2022-07-01T11:30:16;22.00;99.90
11736;DHT22;5924;51.398;7.088;2022-07-01T11:32:48;22.10;99.90
11736;DHT22;5924;51.398;7.088;2022-07-01T11:35:20;21.90;99.90
11736;DHT22;5924;51.398;7.088;2022-07-01T11:38:22;21.80;99.90
11736;DHT22;5924;51.398;7.088;2022-07-01T11:41:20;21.30;99.90
11736;DHT22;5924;51.398;7.088;2022-07-01T11:43:46;22.70;99.90
11736;DHT22;5924;51.398;7.088;2022-07-01T11:46:12;22.90;99.90
11736;DHT22;5924;51.398;7.088;2022-07-01T11:51:13;23.50;99.90
11736;DHT22;5924;51.398;7.088;2022-07-01T11:53:41;23.70;99.90
11736;DHT22;5924;51.398;7.088;2022-07-01T11:56:08;23.80;99.90
11736;DHT22;5924;51.398;7.088;2022-07-01T11:58:53;23.80;99.90
11736;DHT22;5924;51.398;7.088;2022-07-01T12:01:27;24.10;99.90
11736;DHT22;5924;51.398;7.088;2022-07-01T12:03:54;23.90;99.90
11736;DHT22;5924;51.398;7.088;2022-07-01T12:06:20;23.30;99.90
11736;DHT22;5924;51.398;7.088;2022-07-01T12:08:49;23.50;99.90
11736;DHT22;5924;51.398;7.088;2022-07-01T12:11:16;23.80;99.90
11736;DHT22;5924;51.398;7.088;2022-07-01T12:13:44;23.70;99.90
11736;DHT22;5924;51.398;7.088;2022-07-01T12:16:12;23.30;99.90
11736;DHT22;5924;51.398;7.088;2022-07-01T12:18:38;23.50;99.90
11736;DHT22;5924;51.398;7.088;2022-07-01T12:21:04;24.10;99.90
11736;DHT22;5924;51.398;7.088;2022-07-01T12:23:29;24.60;99.90
11736;DHT22;5924;51.398;7.088;2022-07-01T12:25:58;25.40;99.90
11736;DHT22;5924;51.398;7.088;2022-07-01T12:28:44;25.70;99.90
11736;DHT22;5924;51.398;7.088;2022-07-01T12:31:10;25.10;99.90
11736;DHT22;5924;51.398;7.088;2022-07-01T12:33:37;25.10;99.90
11736;DHT22;5924;51.398;7.088;2022-07-01T12:36:04;24.90;99.90
11736;DHT22;5924;51.398;7.088;2022-07-01T12:38:31;24.60;99.90
11736;DHT22;5924;51.398;7.088;2022-07-01T12:40:57;25.00;99.90
11736;DHT22;5924;51.398;7.088;2022-07-01T12:43:31;25.80;99.00
11736;DHT22;5924;51.398;7.088;2022-07-01T12:46:00;27.00;96.10
11736;DHT22;5924;51.398;7.088;2022-07-01T12:48:27;27.20;89.90
11736;DHT22;5924;51.398;7.088;2022-07-01T12:50:56;27.10;91.50
11736;DHT22;5924;51.398;7.088;2022-07-01T12:53:24;26.90;90.60
11736;DHT22;5924;51.398;7.088;2022-07-01T12:55:53;26.30;88.50
11736;DHT22;5924;51.398;7.088;2022-07-01T12:58:21;26.40;84.80
11736;DHT22;5924;51.398;7.088;2022-07-01T13:00:52;25.30;84.10
11736;DHT22;5924;51.398;7.088;2022-07-01T13:03:21;24.10;85.30
11736;DHT22;5924;51.398;7.088;2022-07-01T13:05:48;23.90;91.50
11736;DHT22;5924;51.398;7.088;2022-07-01T13:08:14;24.80;91.30
11736;DHT22;5924;51.398;7.088;2022-07-01T13:10:40;26.00;90.40
11736;DHT22;5924;51.398;7.088;2022-07-01T13:13:06;27.20;88.50
11736;DHT22;5924;51.398;7.088;2022-07-01T13:15:32;28.30;84.60
11736;DHT22;5924;51.398;7.088;2022-07-01T13:17:59;29.40;82.90
11736;DHT22;5924;51.398;7.088;2022-07-01T13:20:25;30.00;78.30
11736;DHT22;5924;51.398;7.088;2022-07-01T13:22:51;30.20;72.10
11736;DHT22;5924;51.398;7.088;2022-07-01T13:25:17;28.80;67.60
11736;DHT22;5924;51.398;7.088;2022-07-01T13:27:43;29.60;66.60
11736;DHT22;5924;51.398;7.088;2022-07-01T13:30:09;28.60;65.40
11736;DHT22;5924;51.398;7.088;2022-07-01T13:32:36;27.50;72.10
11736;DHT22;5924;51.398;7.088;2022-07-01T13:35:03;27.50;72.90
11736;DHT22;5924;51.398;7.088;2022-07-01T13:37:28;26.40;71.30
11736;DHT22;5924;51.398;7.088;2022-07-01T13:39:54;25.40;73.10
11736;DHT22;5924;51.398;7.088;2022-07-01T13:42:20;25.70;75.50
11736;DHT22;5924;51.398;7.088;2022-07-01T13:44:46;27.40;73.60
11736;DHT22;5924;51.398;7.088;2022-07-01T13:47:11;29.10;73.10
11736;DHT22;5924;51.398;7.088;2022-07-01T13:49:40;30.50;68.50
11736;DHT22;5924;51.398;7.088;2022-07-01T13:52:08;31.90;65.20
11736;DHT22;5924;51.398;7.088;2022-07-01T13:54:34;32.60;59.20
11736;DHT22;5924;51.398;7.088;2022-07-01T13:57:00;32.40;58.10
11736;DHT22;5924;51.398;7.088;2022-07-01T13:59:25;32.10;57.90
11736;DHT22;5924;51.398;7.088;2022-07-01T14:01:51;30.80;59.40
11736;DHT22;5924;51.398;7.088;2022-07-01T14:04:17;30.80;58.20
11736;DHT22;5924;51.398;7.088;2022-07-01T14:06:42;29.90;60.00
11736;DHT22;5924;51.398;7.088;2022-07-01T14:09:08;29.00;61.40
11736;DHT22;5924;51.398;7.088;2022-07-01T14:11:34;28.10;62.40
11736;DHT22;5924;51.398;7.088;2022-07-01T14:13:59;28.50;65.70
11736;DHT22;5924;51.398;7.088;2022-07-01T14:16:25;30.00;58.90
11736;DHT22;5924;51.398;7.088;2022-07-01T14:18:55;30.70;56.30
11736;DHT22;5924;51.398;7.088;2022-07-01T14:21:21;32.00;57.80
11736;DHT22;5924;51.398;7.088;2022-07-01T14:23:46;32.50;52.40
11736;DHT22;5924;51.398;7.088;2022-07-01T14:26:12;32.40;52.00
11736;DHT22;5924;51.398;7.088;2022-07-01T14:28:38;32.30;54.50
11736;DHT22;5924;51.398;7.088;2022-07-01T14:31:05;32.50;52.00
11736;DHT22;5924;51.398;7.088;2022-07-01T14:33:31;33.00;51.50
11736;DHT22;5924;51.398;7.088;2022-07-01T14:35:57;33.70;50.90
11736;DHT22;5924;51.398;7.088;2022-07-01T14:38:23;34.20;48.50
11736;DHT22;5924;51.398;7.088;2022-07-01T14:40:49;34.80;48.90
11736;DHT22;5924;51.398;7.088;2022-07-01T14:43:17;35.70;48.30
11736;DHT22;5924;51.398;7.088;2022-07-01T14:45:43;36.00;45.90
11736;DHT22;5924;51.398;7.088;2022-07-01T14:48:10;35.60;45.10
11736;DHT22;5924;51.398;7.088;2022-07-01T14:50:35;35.00;42.80
11736;DHT22;5924;51.398;7.088;2022-07-01T14:53:02;34.40;46.40
11736;DHT22;5924;51.398;7.088;2022-07-01T14:55:29;32.80;46.20
11736;DHT22;5924;51.398;7.088;2022-07-01T14:57:57;32.20;48.00
11736;DHT22;5924;51.398;7.088;2022-07-01T15:00:23;32.40;51.30
11736;DHT22;5924;51.398;7.088;2022-07-01T15:02:51;33.30;48.60
11736;DHT22;5924;51.398;7.088;2022-07-01T15:05:16;34.70;48.00
11736;DHT22;5924;51.398;7.088;2022-07-01T15:07:43;35.50;43.80
11736;DHT22;5924;51.398;7.088;2022-07-01T15:10:09;36.20;43.80
11736;DHT22;5924;51.398;7.088;2022-07-01T15:12:34;35.80;43.00
11736;DHT22;5924;51.398;7.088;2022-07-01T15:15:00;35.20;45.20
11736;DHT22;5924;51.398;7.088;2022-07-01T15:17:26;35.10;44.90
11736;DHT22;5924;51.398;7.088;2022-07-01T15:19:52;34.10;44.90
11736;DHT22;5924;51.398;7.088;2022-07-01T15:22:17;34.40;44.60
11736;DHT22;5924;51.398;7.088;2022-07-01T15:24:43;35.10;43.60
11736;DHT22;5924;51.398;7.088;2022-07-01T15:27:12;35.60;42.20
11736;DHT22;5924;51.398;7.088;2022-07-01T15:29:41;34.70;43.20
11736;DHT22;5924;51.398;7.088;2022-07-01T15:32:07;33.50;44.40
11736;DHT22;5924;51.398;7.088;2022-07-01T15:34:32;33.30;45.00
11736;DHT22;5924;51.398;7.088;2022-07-01T15:36:58;33.40;44.10
11736;DHT22;5924;51.398;7.088;2022-07-01T15:39:24;33.30;45.90
11736;DHT22;5924;51.398;7.088;2022-07-01T15:41:51;31.40;48.10
11736;DHT22;5924;51.398;7.088;2022-07-01T15:44:17;29.50;50.60
11736;DHT22;5924;51.398;7.088;2022-07-01T15:46:43;28.20;52.30
11736;DHT22;5924;51.398;7.088;2022-07-01T15:49:08;29.00;52.40
11736;DHT22;5924;51.398;7.088;2022-07-01T15:51:36;31.00;52.10
11736;DHT22;5924;51.398;7.088;2022-07-01T15:54:02;32.60;46.30
11736;DHT22;5924;51.398;7.088;2022-07-01T15:56:29;33.70;44.80
11736;DHT22;5924;51.398;7.088;2022-07-01T15:58:56;33.70;42.40
11736;DHT22;5924;51.398;7.088;2022-07-01T16:01:22;33.60;43.10
11736;DHT22;5924;51.398;7.088;2022-07-01T16:03:49;33.60;42.50